sensor_id;sensor_type;location;lat;lon;timestamp;temperature;humidity
76211;DHT22;65003;49.518;11.280;2023-05-29T00:00:12;15.30;59.80
76211;DHT22;65003;49.518;11.280;2023-05-29T00:02:39;15.30;60.00
76211;DHT22;65003;49.518;11.280;2023-05-29T00:05:05;15.30;60.20
76211;DHT22;65003;49.518;11.280;2023-05-29T00:07:32;15.40;60.20
76211;DHT22;65003;49.518;11.280;2023-05-29T00:09:59;15.40;60.10
76211;DHT22;65003;49.518;11.280;2023-05-29T00:12:26;15.40;60.10
76211;DHT22;65003;49.518;11.280;2023-05-29T00:14:52;15.30;60.40
76211;DHT22;65003;49.518;11.280;2023-05-29T00:17:19;15.30;60.50
76211;DHT22;65003;49.518;11.280;2023-05-29T00:19:45;15.30;60.60
76211;DHT22;65003;49.518;11.280;2023-05-29T00:22:12;15.20;61.10
76211;DHT22;65003;49.518;11.280;2023-05-29T00:24:38;15.30;61.10
76211;DHT22;65003;49.518;11.280;2023-05-29T00:27:05;15.30;61.10
76211;DHT22;65003;49.518;11.280;2023-05-29T00:29:32;15.20;61.60
76211;DHT22;65003;49.518;11.280;2023-05-29T00:31:58;15.20;61.30
76211;DHT22;65003;49.518;11.280;2023-05-29T00:34:25;15.10;62.10
76211;DHT22;65003;49.518;11.280;2023-05-29T00:36:52;14.90;62.40
76211;DHT22;65003;49.518;11.280;2023-05-29T00:39:18;14.90;62.80
76211;DHT22;65003;49.518;11.280;2023-05-29T00:41:45;14.80;63.00
76211;DHT22;65003;49.518;11.280;2023-05-29T00:44:11;14.70;63.30
76211;DHT22;65003;49.518;11.280;2023-05-29T00:46:38;14.70;63.60
76211;DHT22;65003;49.518;11.280;2023-05-29T00:49:05;14.90;63.50
76211;DHT22;65003;49.518;11.280;2023-05-29T00:51:31;15.20;62.40
76211;DHT22;65003;49.518;11.280;2023-05-29T00:53:58;15.40;61.30
76211;DHT22;65003;49.518;11.280;2023-05-29T00:56:24;15.60;60.20
76211;DHT22;65003;49.518;11.280;2023-05-29T00:58:51;15.80;59.70
76211;DHT22;65003;49.518;11.280;2023-05-29T01:01:18;16.00;59.20
76211;DHT22;65003;49.518;11.280;2023-05-29T01:03:44;16.00;58.70
76211;DHT22;65003;49.518;11.280;2023-05-29T01:06:11;16.00;58.80
76211;DHT22;65003;49.518;11.280;2023-05-29T01:08:37;16.00;58.60
76211;DHT22;65003;49.518;11.280;2023-05-29T01:11:12;16.00;58.50
76211;DHT22;65003;49.518;11.280;2023-05-29T01:13:37;16.10;58.40
76211;DHT22;65003;49.518;11.280;2023-05-29T01:16:08;16.10;58.20
76211;DHT22;65003;49.518;11.280;2023-05-29T01:18:39;16.00;58.30
76211;DHT22;65003;49.518;11.280;2023-05-29T01:21:10;16.00;58.40
76211;DHT22;65003;49.518;11.280;2023-05-29T01:23:51;16.00;58.50
76211;DHT22;65003;49.518;11.280;2023-05-29T01:28:47;15.90;58.60
76211;DHT22;65003;49.518;11.280;2023-05-29T01:31:11;15.90;58.70
76211;DHT22;65003;49.518;11.280;2023-05-29T01:33:39;15.80;58.60
76211;DHT22;65003;49.518;11.280;2023-05-29T01:36:07;15.80;58.90
76211;DHT22;65003;49.518;11.280;2023-05-29T01:38:34;15.70;59.60
76211;DHT22;65003;49.518;11.280;2023-05-29T01:41:01;15.80;59.60
76211;DHT22;65003;49.518;11.280;2023-05-29T01:43:27;15.70;59.70
76211;DHT22;65003;49.518;11.280;2023-05-29T01:45:53;15.60;60.50
76211;DHT22;65003;49.518;11.280;2023-05-29T01:48:20;15.60;61.20
76211;DHT22;65003;49.518;11.280;2023-05-29T01:50:47;15.40;62.20
76211;DHT22;65003;49.518;11.280;2023-05-29T01:53:13;15.30;62.70
76211;DHT22;65003;49.518;11.280;2023-05-29T01:55:40;15.20;62.40
76211;DHT22;65003;49.518;11.280;2023-05-29T01:58:07;15.20;62.20
76211;DHT22;65003;49.518;11.280;2023-05-29T02:00:33;15.10;62.60
76211;DHT22;65003;49.518;11.280;2023-05-29T02:03:00;15.20;62.70
76211;DHT22;65003;49.518;11.280;2023-05-29T02:05:27;15.10;62.80
76211;DHT22;65003;49.518;11.280;2023-05-29T02:07:53;15.10;62.50
76211;DHT22;65003;49.518;11.280;2023-05-29T02:10:20;15.10;63.50
76211;DHT22;65003;49.518;11.280;2023-05-29T02:12:46;15.00;63.50
76211;DHT22;65003;49.518;11.280;2023-05-29T02:15:13;15.00;63.90
76211;DHT22;65003;49.518;11.280;2023-05-29T02:17:40;14.90;64.00
76211;DHT22;65003;49.518;11.280;2023-05-29T02:20:07;14.90;64.60
76211;DHT22;65003;49.518;11.280;2023-05-29T02:22:33;14.90;64.40
76211;DHT22;65003;49.518;11.280;2023-05-29T02:25:00;14.80;64.60
76211;DHT22;65003;49.518;11.280;2023-05-29T02:27:27;14.70;64.70
76211;DHT22;65003;49.518;11.280;2023-05-29T02:29:53;14.70;64.40
76211;DHT22;65003;49.518;11.280;2023-05-29T02:32:20;14.70;65.60
76211;DHT22;65003;49.518;11.280;2023-05-29T02:34:47;14.60;65.00
76211;DHT22;65003;49.518;11.280;2023-05-29T02:37:13;14.60;65.10
76211;DHT22;65003;49.518;11.280;2023-05-29T02:39:40;14.60;64.40
76211;DHT22;65003;49.518;11.280;2023-05-29T02:42:06;14.60;64.20
76211;DHT22;65003;49.518;11.280;2023-05-29T02:44:33;14.60;64.30
76211;DHT22;65003;49.518;11.280;2023-05-29T02:47:00;14.70;64.50
76211;DHT22;65003;49.518;11.280;2023-05-29T02:49:26;14.60;64.80
76211;DHT22;65003;49.518;11.280;2023-05-29T02:51:53;14.60;64.40
76211;DHT22;65003;49.518;11.280;2023-05-29T02:54:19;14.70;64.40
76211;DHT22;65003;49.518;11.280;2023-05-29T02:56:46;14.70;63.80
76211;DHT22;65003;49.518;11.280;2023-05-29T02:59:12;14.70;63.50
76211;DHT22;65003;49.518;11.280;2023-05-29T03:01:39;14.70;63.50
76211;DHT22;65003;49.518;11.280;2023-05-29T03:04:06;14.70;63.30
76211;DHT22;65003;49.518;11.280;2023-05-29T03:06:32;14.70;63.60
76211;DHT22;65003;49.518;11.280;2023-05-29T03:08:59;14.60;63.90
76211;DHT22;65003;49.518;11.280;2023-05-29T03:11:26;14.60;64.40
76211;DHT22;65003;49.518;11.280;2023-05-29T03:13:52;14.50;64.70
76211;DHT22;65003;49.518;11.280;2023-05-29T03:16:19;14.40;65.10
76211;DHT22;65003;49.518;11.280;2023-05-29T03:18:45;14.40;65.70
76211;DHT22;65003;49.518;11.280;2023-05-29T03:21:12;14.40;65.80
76211;DHT22;65003;49.518;11.280;2023-05-29T03:23:39;14.40;66.20
76211;DHT22;65003;49.518;11.280;2023-05-29T03:26:05;14.30;66.20
76211;DHT22;65003;49.518;11.280;2023-05-29T03:28:32;14.30;66.50
76211;DHT22;65003;49.518;11.280;2023-05-29T03:30:58;14.30;67.00
76211;DHT22;65003;49.518;11.280;2023-05-29T03:33:25;14.20;67.30
76211;DHT22;65003;49.518;11.280;2023-05-29T03:35:52;14.20;67.30
76211;DHT22;65003;49.518;11.280;2023-05-29T03:38:18;14.10;67.40
76211;DHT22;65003;49.518;11.280;2023-05-29T03:40:45;14.10;67.10
76211;DHT22;65003;49.518;11.280;2023-05-29T03:43:12;14.10;67.60
76211;DHT22;65003;49.518;11.280;2023-05-29T03:45:38;14.10;67.40
76211;DHT22;65003;49.518;11.280;2023-05-29T03:48:05;14.10;67.80
76211;DHT22;65003;49.518;11.280;2023-05-29T03:50:31;14.10;67.00
76211;DHT22;65003;49.518;11.280;2023-05-29T03:52:58;14.20;66.50
76211;DHT22;65003;49.518;11.280;2023-05-29T03:55:25;14.20;66.10
76211;DHT22;65003;49.518;11.280;2023-05-29T03:57:51;14.30;66.00
76211;DHT22;65003;49.518;11.280;2023-05-29T04:00:18;14.30;66.40
76211;DHT22;65003;49.518;11.280;2023-05-29T04:02:44;14.40;66.00
76211;DHT22;65003;49.518;11.280;2023-05-29T04:05:11;14.40;66.20
76211;DHT22;65003;49.518;11.280;2023-05-29T04:07:38;14.40;66.30
76211;DHT22;65003;49.518;11.280;2023-05-29T04:10:05;14.40;66.20
76211;DHT22;65003;49.518;11.280;2023-05-29T04:12:32;14.50;66.10
76211;DHT22;65003;49.518;11.280;2023-05-29T04:14:59;14.50;66.40
76211;DHT22;65003;49.518;11.280;2023-05-29T04:17:26;14.50;66.10
76211;DHT22;65003;49.518;11.280;2023-05-29T04:19:52;14.60;66.20
76211;DHT22;65003;49.518;11.280;2023-05-29T04:22:19;14.60;65.60
76211;DHT22;65003;49.518;11.280;2023-05-29T04:24:45;14.60;65.60
76211;DHT22;65003;49.518;11.280;2023-05-29T04:27:12;14.70;66.50
76211;DHT22;65003;49.518;11.280;2023-05-29T04:29:40;14.80;65.80
76211;DHT22;65003;49.518;11.280;2023-05-29T04:32:06;14.80;65.30
76211;DHT22;65003;49.518;11.280;2023-05-29T04:34:33;14.80;65.30
76211;DHT22;65003;49.518;11.280;2023-05-29T04:36:59;14.70;65.80
76211;DHT22;65003;49.518;11.280;2023-05-29T04:39:26;14.70;66.00
76211;DHT22;65003;49.518;11.280;2023-05-29T04:41:53;14.80;66.10
76211;DHT22;65003;49.518;11.280;2023-05-29T04:44:19;14.80;66.30
76211;DHT22;65003;49.518;11.280;2023-05-29T04:46:46;14.90;65.80
76211;DHT22;65003;49.518;11.280;2023-05-29T04:49:12;15.10;65.10
76211;DHT22;65003;49.518;11.280;2023-05-29T04:51:39;15.20;64.40
76211;DHT22;65003;49.518;11.280;2023-05-29T04:54:07;15.00;64.80
76211;DHT22;65003;49.518;11.280;2023-05-29T04:56:33;14.90;65.30
76211;DHT22;65003;49.518;11.280;2023-05-29T04:59:00;14.90;65.30
76211;DHT22;65003;49.518;11.280;2023-05-29T05:01:26;15.10;65.60
76211;DHT22;65003;49.518;11.280;2023-05-29T05:03:53;15.20;64.60
76211;DHT22;65003;49.518;11.280;2023-05-29T05:06:20;15.30;64.40
76211;DHT22;65003;49.518;11.280;2023-05-29T05:08:46;15.40;64.70
76211;DHT22;65003;49.518;11.280;2023-05-29T05:11:13;15.30;64.60
76211;DHT22;65003;49.518;11.280;2023-05-29T05:13:39;15.40;64.90
76211;DHT22;65003;49.518;11.280;2023-05-29T05:16:06;15.60;65.00
76211;DHT22;65003;49.518;11.280;2023-05-29T05:18:33;15.70;64.80
76211;DHT22;65003;49.518;11.280;2023-05-29T05:20:59;16.00;63.80
76211;DHT22;65003;49.518;11.280;2023-05-29T05:23:26;16.20;62.50
76211;DHT22;65003;49.518;11.280;2023-05-29T05:25:52;16.30;61.70
76211;DHT22;65003;49.518;11.280;2023-05-29T05:28:19;16.30;61.10
76211;DHT22;65003;49.518;11.280;2023-05-29T05:30:46;16.40;60.80
76211;DHT22;65003;49.518;11.280;2023-05-29T05:33:13;16.50;60.60
76211;DHT22;65003;49.518;11.280;2023-05-29T05:35:40;16.80;60.00
76211;DHT22;65003;49.518;11.280;2023-05-29T05:38:06;17.00;58.80
76211;DHT22;65003;49.518;11.280;2023-05-29T05:40:33;17.20;58.20
76211;DHT22;65003;49.518;11.280;2023-05-29T05:42:59;17.30;58.30
76211;DHT22;65003;49.518;11.280;2023-05-29T05:45:26;17.50;56.60
76211;DHT22;65003;49.518;11.280;2023-05-29T05:47:53;17.70;56.10
76211;DHT22;65003;49.518;11.280;2023-05-29T05:50:19;17.90;55.30
76211;DHT22;65003;49.518;11.280;2023-05-29T05:52:46;18.10;55.00
76211;DHT22;65003;49.518;11.280;2023-05-29T05:55:12;18.50;55.00
76211;DHT22;65003;49.518;11.280;2023-05-29T05:57:39;18.90;53.70
76211;DHT22;65003;49.518;11.280;2023-05-29T06:00:06;19.10;52.60
76211;DHT22;65003;49.518;11.280;2023-05-29T06:02:33;19.30;52.40
76211;DHT22;65003;49.518;11.280;2023-05-29T06:05:00;19.70;52.00
76211;DHT22;65003;49.518;11.280;2023-05-29T06:07:27;20.10;50.90
76211;DHT22;65003;49.518;11.280;2023-05-29T06:09:54;20.60;48.90
76211;DHT22;65003;49.518;11.280;2023-05-29T06:12:20;21.00;47.60
76211;DHT22;65003;49.518;11.280;2023-05-29T06:14:47;21.30;46.80
76211;DHT22;65003;49.518;11.280;2023-05-29T06:17:13;21.70;45.90
76211;DHT22;65003;49.518;11.280;2023-05-29T06:19:40;21.90;45.30
76211;DHT22;65003;49.518;11.280;2023-05-29T06:22:07;22.30;44.40
76211;DHT22;65003;49.518;11.280;2023-05-29T06:24:34;22.80;43.60
76211;DHT22;65003;49.518;11.280;2023-05-29T06:27:00;23.30;42.00
76211;DHT22;65003;49.518;11.280;2023-05-29T06:29:27;23.80;40.40
76211;DHT22;65003;49.518;11.280;2023-05-29T06:31:54;24.40;39.00
76211;DHT22;65003;49.518;11.280;2023-05-29T06:34:20;25.00;37.70
76211;DHT22;65003;49.518;11.280;2023-05-29T06:36:47;25.50;36.70
76211;DHT22;65003;49.518;11.280;2023-05-29T06:39:14;26.10;35.10
76211;DHT22;65003;49.518;11.280;2023-05-29T06:41:40;26.90;34.50
76211;DHT22;65003;49.518;11.280;2023-05-29T06:44:07;27.60;33.30
76211;DHT22;65003;49.518;11.280;2023-05-29T06:46:33;28.30;31.80
76211;DHT22;65003;49.518;11.280;2023-05-29T06:49:00;29.20;30.20
76211;DHT22;65003;49.518;11.280;2023-05-29T06:51:26;30.50;29.40
76211;DHT22;65003;49.518;11.280;2023-05-29T06:53:53;31.70;28.00
76211;DHT22;65003;49.518;11.280;2023-05-29T06:56:20;32.70;26.60
76211;DHT22;65003;49.518;11.280;2023-05-29T06:58:46;33.60;25.60
76211;DHT22;65003;49.518;11.280;2023-05-29T07:01:13;34.60;24.70
76211;DHT22;65003;49.518;11.280;2023-05-29T07:03:39;35.00;23.80
76211;DHT22;65003;49.518;11.280;2023-05-29T07:06:06;35.60;23.50
76211;DHT22;65003;49.518;11.280;2023-05-29T07:08:33;36.60;23.00
76211;DHT22;65003;49.518;11.280;2023-05-29T07:11:00;37.20;22.60
76211;DHT22;65003;49.518;11.280;2023-05-29T07:13:26;38.20;32.50
76211;DHT22;65003;49.518;11.280;2023-05-29T07:15:52;38.70;24.30
76211;DHT22;65003;49.518;11.280;2023-05-29T07:18:19;39.60;20.10
76211;DHT22;65003;49.518;11.280;2023-05-29T07:20:46;39.80;20.40
76211;DHT22;65003;49.518;11.280;2023-05-29T07:23:12;40.40;20.10
76211;DHT22;65003;49.518;11.280;2023-05-29T07:25:39;40.80;19.20
76211;DHT22;65003;49.518;11.280;2023-05-29T07:28:05;40.80;19.30
76211;DHT22;65003;49.518;11.280;2023-05-29T07:30:32;41.20;19.20
76211;DHT22;65003;49.518;11.280;2023-05-29T07:32:59;41.50;19.30
76211;DHT22;65003;49.518;11.280;2023-05-29T07:35:25;41.30;18.60
76211;DHT22;65003;49.518;11.280;2023-05-29T07:37:52;41.00;18.80
76211;DHT22;65003;49.518;11.280;2023-05-29T07:40:19;41.10;18.50
76211;DHT22;65003;49.518;11.280;2023-05-29T07:42:45;41.40;18.00
76211;DHT22;65003;49.518;11.280;2023-05-29T07:45:12;41.60;18.40
76211;DHT22;65003;49.518;11.280;2023-05-29T07:47:39;42.20;18.00
76211;DHT22;65003;49.518;11.280;2023-05-29T07:50:05;42.60;17.50
76211;DHT22;65003;49.518;11.280;2023-05-29T07:52:32;40.70;17.70
76211;DHT22;65003;49.518;11.280;2023-05-29T07:54:59;37.90;19.30
76211;DHT22;65003;49.518;11.280;2023-05-29T07:57:25;38.30;20.30
76211;DHT22;65003;49.518;11.280;2023-05-29T07:59:52;38.50;19.30
76211;DHT22;65003;49.518;11.280;2023-05-29T08:02:18;38.80;18.60
76211;DHT22;65003;49.518;11.280;2023-05-29T08:04:45;37.30;18.50
76211;DHT22;65003;49.518;11.280;2023-05-29T08:07:12;36.30;20.20
76211;DHT22;65003;49.518;11.280;2023-05-29T08:09:38;37.50;19.90
76211;DHT22;65003;49.518;11.280;2023-05-29T08:12:05;37.60;18.90
76211;DHT22;65003;49.518;11.280;2023-05-29T08:14:32;35.90;20.00
76211;DHT22;65003;49.518;11.280;2023-05-29T08:16:58;35.80;20.50
76211;DHT22;65003;49.518;11.280;2023-05-29T08:19:25;35.30;20.90
76211;DHT22;65003;49.518;11.280;2023-05-29T08:21:51;34.80;20.70
76211;DHT22;65003;49.518;11.280;2023-05-29T08:24:19;35.40;20.80
76211;DHT22;65003;49.518;11.280;2023-05-29T08:26:45;35.70;20.30
76211;DHT22;65003;49.518;11.280;2023-05-29T08:29:12;36.50;22.10
76211;DHT22;65003;49.518;11.280;2023-05-29T08:31:39;36.10;20.20
76211;DHT22;65003;49.518;11.280;2023-05-29T08:34:06;36.20;21.00
76211;DHT22;65003;49.518;11.280;2023-05-29T08:36:33;35.70;20.30
76211;DHT22;65003;49.518;11.280;2023-05-29T08:38:59;36.50;23.80
76211;DHT22;65003;49.518;11.280;2023-05-29T08:41:44;37.10;19.90
76211;DHT22;65003;49.518;11.280;2023-05-29T08:44:12;36.60;20.50
76211;DHT22;65003;49.518;11.280;2023-05-29T08:46:37;36.50;19.90
76211;DHT22;65003;49.518;11.280;2023-05-29T08:49:03;36.70;19.30
76211;DHT22;65003;49.518;11.280;2023-05-29T08:51:31;35.40;20.40
76211;DHT22;65003;49.518;11.280;2023-05-29T08:53:57;34.00;21.20
76211;DHT22;65003;49.518;11.280;2023-05-29T08:56:23;33.60;21.30
76211;DHT22;65003;49.518;11.280;2023-05-29T08:58:50;32.90;22.00
76211;DHT22;65003;49.518;11.280;2023-05-29T09:01:16;32.60;22.70
76211;DHT22;65003;49.518;11.280;2023-05-29T09:03:43;32.90;22.10
76211;DHT22;65003;49.518;11.280;2023-05-29T09:06:10;33.10;24.00
76211;DHT22;65003;49.518;11.280;2023-05-29T09:08:36;33.60;21.70
76211;DHT22;65003;49.518;11.280;2023-05-29T09:11:03;33.70;20.60
76211;DHT22;65003;49.518;11.280;2023-05-29T09:13:30;33.10;21.40
76211;DHT22;65003;49.518;11.280;2023-05-29T09:15:58;32.80;21.50
76211;DHT22;65003;49.518;11.280;2023-05-29T09:18:27;32.60;21.50
76211;DHT22;65003;49.518;11.280;2023-05-29T09:20:50;32.40;22.20
76211;DHT22;65003;49.518;11.280;2023-05-29T09:23:17;32.70;22.80
76211;DHT22;65003;49.518;11.280;2023-05-29T09:25:43;33.20;22.70
76211;DHT22;65003;49.518;11.280;2023-05-29T09:28:10;33.40;21.60
76211;DHT22;65003;49.518;11.280;2023-05-29T09:30:40;33.60;21.30
76211;DHT22;65003;49.518;11.280;2023-05-29T09:33:07;33.10;21.20
76211;DHT22;65003;49.518;11.280;2023-05-29T09:35:36;32.90;21.80
76211;DHT22;65003;49.518;11.280;2023-05-29T09:38:02;33.10;21.30
76211;DHT22;65003;49.518;11.280;2023-05-29T09:40:30;33.10;21.00
76211;DHT22;65003;49.518;11.280;2023-05-29T09:43:00;32.90;22.10
76211;DHT22;65003;49.518;11.280;2023-05-29T09:45:22;32.50;21.40
76211;DHT22;65003;49.518;11.280;2023-05-29T09:47:50;31.60;22.10
76211;DHT22;65003;49.518;11.280;2023-05-29T09:50:18;31.90;22.80
76211;DHT22;65003;49.518;11.280;2023-05-29T09:52:44;31.50;22.40
76211;DHT22;65003;49.518;11.280;2023-05-29T09:55:11;31.30;22.80
76211;DHT22;65003;49.518;11.280;2023-05-29T09:57:37;31.50;22.80
76211;DHT22;65003;49.518;11.280;2023-05-29T10:00:05;31.80;21.80
76211;DHT22;65003;49.518;11.280;2023-05-29T10:02:32;31.80;21.20
76211;DHT22;65003;49.518;11.280;2023-05-29T10:04:58;31.00;20.30
76211;DHT22;65003;49.518;11.280;2023-05-29T10:07:26;30.20;20.40
76211;DHT22;65003;49.518;11.280;2023-05-29T10:09:52;29.80;20.60
76211;DHT22;65003;49.518;11.280;2023-05-29T10:12:19;29.80;21.00
76211;DHT22;65003;49.518;11.280;2023-05-29T10:14:45;29.90;21.20
76211;DHT22;65003;49.518;11.280;2023-05-29T10:17:11;29.90;21.80
76211;DHT22;65003;49.518;11.280;2023-05-29T10:19:38;30.20;21.70
76211;DHT22;65003;49.518;11.280;2023-05-29T10:22:04;30.30;21.20
76211;DHT22;65003;49.518;11.280;2023-05-29T10:24:32;30.00;20.50
76211;DHT22;65003;49.518;11.280;2023-05-29T10:26:58;29.70;21.70
76211;DHT22;65003;49.518;11.280;2023-05-29T10:29:33;29.70;22.20
76211;DHT22;65003;49.518;11.280;2023-05-29T10:35:14;29.80;21.20
76211;DHT22;65003;49.518;11.280;2023-05-29T10:37:44;29.40;21.70
76211;DHT22;65003;49.518;11.280;2023-05-29T10:40:10;29.30;22.00
76211;DHT22;65003;49.518;11.280;2023-05-29T10:42:44;29.00;21.40
76211;DHT22;65003;49.518;11.280;2023-05-29T10:45:10;28.70;21.40
76211;DHT22;65003;49.518;11.280;2023-05-29T10:47:38;28.70;21.50
76211;DHT22;65003;49.518;11.280;2023-05-29T10:50:05;28.50;21.30
76211;DHT22;65003;49.518;11.280;2023-05-29T10:52:32;28.30;21.80
76211;DHT22;65003;49.518;11.280;2023-05-29T10:54:58;28.30;22.00
76211;DHT22;65003;49.518;11.280;2023-05-29T10:57:25;28.40;22.30
76211;DHT22;65003;49.518;11.280;2023-05-29T11:00:02;28.40;22.40
76211;DHT22;65003;49.518;11.280;2023-05-29T11:02:26;28.60;23.10
76211;DHT22;65003;49.518;11.280;2023-05-29T11:05:06;28.50;22.20
76211;DHT22;65003;49.518;11.280;2023-05-29T11:07:34;28.40;22.90
76211;DHT22;65003;49.518;11.280;2023-05-29T11:10:11;28.50;22.40
76211;DHT22;65003;49.518;11.280;2023-05-29T11:12:55;28.60;22.60
76211;DHT22;65003;49.518;11.280;2023-05-29T11:15:06;28.90;22.80
76211;DHT22;65003;49.518;11.280;2023-05-29T11:17:32;29.20;22.80
76211;DHT22;65003;49.518;11.280;2023-05-29T11:20:02;29.30;22.30
76211;DHT22;65003;49.518;11.280;2023-05-29T11:22:29;29.20;23.00
76211;DHT22;65003;49.518;11.280;2023-05-29T11:24:54;29.00;23.50
76211;DHT22;65003;49.518;11.280;2023-05-29T11:27:21;29.10;23.50
76211;DHT22;65003;49.518;11.280;2023-05-29T11:29:48;29.10;23.60
76211;DHT22;65003;49.518;11.280;2023-05-29T11:32:14;29.00;23.60
76211;DHT22;65003;49.518;11.280;2023-05-29T11:34:41;29.00;22.90
76211;DHT22;65003;49.518;11.280;2023-05-29T11:37:07;28.80;23.20
76211;DHT22;65003;49.518;11.280;2023-05-29T11:39:36;28.60;23.90
76211;DHT22;65003;49.518;11.280;2023-05-29T11:42:02;28.50;23.80
76211;DHT22;65003;49.518;11.280;2023-05-29T11:44:29;28.50;23.70
76211;DHT22;65003;49.518;11.280;2023-05-29T11:47:05;28.60;23.00
76211;DHT22;65003;49.518;11.280;2023-05-29T11:49:32;28.50;23.30
76211;DHT22;65003;49.518;11.280;2023-05-29T11:52:09;28.60;24.50
76211;DHT22;65003;49.518;11.280;2023-05-29T11:54:35;28.60;24.90
76211;DHT22;65003;49.518;11.280;2023-05-29T11:57:02;28.70;24.70
76211;DHT22;65003;49.518;11.280;2023-05-29T11:59:29;28.70;23.40
76211;DHT22;65003;49.518;11.280;2023-05-29T12:01:55;28.70;22.80
76211;DHT22;65003;49.518;11.280;2023-05-29T12:04:21;28.50;22.90
76211;DHT22;65003;49.518;11.280;2023-05-29T12:06:48;28.40;23.50
76211;DHT22;65003;49.518;11.280;2023-05-29T12:09:23;28.30;23.90
76211;DHT22;65003;49.518;11.280;2023-05-29T12:11:50;28.30;24.70
76211;DHT22;65003;49.518;11.280;2023-05-29T12:14:16;28.10;24.00
76211;DHT22;65003;49.518;11.280;2023-05-29T12:16:42;28.00;23.80
76211;DHT22;65003;49.518;11.280;2023-05-29T12:19:09;27.90;23.90
76211;DHT22;65003;49.518;11.280;2023-05-29T12:21:35;27.80;24.70
76211;DHT22;65003;49.518;11.280;2023-05-29T12:24:02;27.90;24.20
76211;DHT22;65003;49.518;11.280;2023-05-29T12:26:29;27.80;24.50
76211;DHT22;65003;49.518;11.280;2023-05-29T12:28:55;27.80;24.90
76211;DHT22;65003;49.518;11.280;2023-05-29T12:31:28;27.90;24.80
76211;DHT22;65003;49.518;11.280;2023-05-29T12:33:59;27.90;26.20
76211;DHT22;65003;49.518;11.280;2023-05-29T12:36:25;27.80;25.20
76211;DHT22;65003;49.518;11.280;2023-05-29T12:38:51;27.80;26.00
76211;DHT22;65003;49.518;11.280;2023-05-29T12:41:25;27.80;24.10
76211;DHT22;65003;49.518;11.280;2023-05-29T12:43:53;27.60;24.80
76211;DHT22;65003;49.518;11.280;2023-05-29T12:46:19;27.40;24.20
76211;DHT22;65003;49.518;11.280;2023-05-29T12:48:45;27.30;24.60
76211;DHT22;65003;49.518;11.280;2023-05-29T12:51:12;27.30;25.40
76211;DHT22;65003;49.518;11.280;2023-05-29T12:53:38;27.30;24.70
76211;DHT22;65003;49.518;11.280;2023-05-29T12:56:05;27.40;25.10
76211;DHT22;65003;49.518;11.280;2023-05-29T12:58:32;27.50;25.00
76211;DHT22;65003;49.518;11.280;2023-05-29T13:00:58;27.40;25.00
76211;DHT22;65003;49.518;11.280;2023-05-29T13:03:25;27.30;24.70
76211;DHT22;65003;49.518;11.280;2023-05-29T13:05:51;27.10;25.80
76211;DHT22;65003;49.518;11.280;2023-05-29T13:08:19;27.20;26.30
76211;DHT22;65003;49.518;11.280;2023-05-29T13:10:45;27.30;26.20
76211;DHT22;65003;49.518;11.280;2023-05-29T13:13:12;27.40;26.40
76211;DHT22;65003;49.518;11.280;2023-05-29T13:15:38;27.60;26.40
76211;DHT22;65003;49.518;11.280;2023-05-29T13:18:05;27.60;25.40
76211;DHT22;65003;49.518;11.280;2023-05-29T13:20:31;27.60;25.30
76211;DHT22;65003;49.518;11.280;2023-05-29T13:22:58;27.40;24.70
76211;DHT22;65003;49.518;11.280;2023-05-29T13:25:25;27.20;25.20
76211;DHT22;65003;49.518;11.280;2023-05-29T13:27:51;27.00;25.30
76211;DHT22;65003;49.518;11.280;2023-05-29T13:30:18;26.80;26.30
76211;DHT22;65003;49.518;11.280;2023-05-29T13:32:44;26.90;26.00
76211;DHT22;65003;49.518;11.280;2023-05-29T13:35:11;26.60;25.20
76211;DHT22;65003;49.518;11.280;2023-05-29T13:37:38;26.70;25.30
76211;DHT22;65003;49.518;11.280;2023-05-29T13:40:05;26.60;25.40
76211;DHT22;65003;49.518;11.280;2023-05-29T13:42:32;26.60;26.20
76211;DHT22;65003;49.518;11.280;2023-05-29T13:44:58;26.40;26.60
76211;DHT22;65003;49.518;11.280;2023-05-29T13:47:25;26.60;27.20
76211;DHT22;65003;49.518;11.280;2023-05-29T13:49:52;26.60;26.70
76211;DHT22;65003;49.518;11.280;2023-05-29T13:52:18;26.70;26.30
76211;DHT22;65003;49.518;11.280;2023-05-29T13:54:45;26.70;27.30
76211;DHT22;65003;49.518;11.280;2023-05-29T13:57:11;26.80;27.10
76211;DHT22;65003;49.518;11.280;2023-05-29T13:59:38;26.90;26.40
76211;DHT22;65003;49.518;11.280;2023-05-29T14:02:05;26.80;25.50
76211;DHT22;65003;49.518;11.280;2023-05-29T14:04:31;26.80;27.10
76211;DHT22;65003;49.518;11.280;2023-05-29T14:06:58;26.80;25.90
76211;DHT22;65003;49.518;11.280;2023-05-29T14:09:24;26.70;25.70
76211;DHT22;65003;49.518;11.280;2023-05-29T14:11:55;26.50;25.60
76211;DHT22;65003;49.518;11.280;2023-05-29T14:14:21;26.50;26.50
76211;DHT22;65003;49.518;11.280;2023-05-29T14:16:48;26.60;26.40
76211;DHT22;65003;49.518;11.280;2023-05-29T14:19:14;26.60;26.00
76211;DHT22;65003;49.518;11.280;2023-05-29T14:21:41;26.50;25.50
76211;DHT22;65003;49.518;11.280;2023-05-29T14:24:07;26.40;26.00
76211;DHT22;65003;49.518;11.280;2023-05-29T14:26:34;26.40;26.70
76211;DHT22;65003;49.518;11.280;2023-05-29T14:29:01;26.30;26.40
76211;DHT22;65003;49.518;11.280;2023-05-29T14:31:27;26.30;26.10
76211;DHT22;65003;49.518;11.280;2023-05-29T14:33:54;26.20;26.20
76211;DHT22;65003;49.518;11.280;2023-05-29T14:36:20;26.20;26.60
76211;DHT22;65003;49.518;11.280;2023-05-29T14:38:47;26.20;26.60
76211;DHT22;65003;49.518;11.280;2023-05-29T14:41:13;26.20;27.80
76211;DHT22;65003;49.518;11.280;2023-05-29T14:43:41;26.30;27.50
76211;DHT22;65003;49.518;11.280;2023-05-29T14:46:09;26.40;27.70
76211;DHT22;65003;49.518;11.280;2023-05-29T14:48:35;26.40;26.40
76211;DHT22;65003;49.518;11.280;2023-05-29T14:51:02;26.50;27.60
76211;DHT22;65003;49.518;11.280;2023-05-29T14:53:28;26.60;27.40
76211;DHT22;65003;49.518;11.280;2023-05-29T14:55:55;26.60;26.80
76211;DHT22;65003;49.518;11.280;2023-05-29T14:58:21;26.60;26.10
76211;DHT22;65003;49.518;11.280;2023-05-29T15:00:48;26.60;25.70
76211;DHT22;65003;49.518;11.280;2023-05-29T15:03:14;26.50;26.00
76211;DHT22;65003;49.518;11.280;2023-05-29T15:05:41;26.40;25.60
76211;DHT22;65003;49.518;11.280;2023-05-29T15:08:08;26.30;26.00
76211;DHT22;65003;49.518;11.280;2023-05-29T15:10:34;26.30;25.50
76211;DHT22;65003;49.518;11.280;2023-05-29T15:13:01;26.30;26.10
76211;DHT22;65003;49.518;11.280;2023-05-29T15:15:27;26.40;25.80
76211;DHT22;65003;49.518;11.280;2023-05-29T15:17:54;26.30;26.30